Terminal Aerodrome Forecast
Issued by NWS

Current Version | Previous Version | Text Only | Print | Product List | Glossary On
Versions: 1 2 3 4 5 6 7 8 9 10 11 12 13 14 15 16 17 18 19
000
FTAK31 PAJN 182300
TAFAWG
TAF
PAWG 182322Z 1900/1924 13016G26KT 6SM -RA BR SCT020 OVC035
     FM190300 13012KT 5SM -RA BR BKN025 OVC035
     FM192000 13008KT P6SM -SHRA SCT025 OVC035
      AMD LTD TO CLD VIS AND WIND 1906/1915=

USA.gov is the U.S. government's official web portal to all federal, state and local government web resources and services.